createdAt,value
2017-11-19T00:00:30.929Z,0
2017-11-19T00:01:30.945Z,0
2017-11-19T00:03:30.937Z,0
2017-11-19T00:04:30.977Z,0
2017-11-19T00:05:30.996Z,0
2017-11-19T00:06:31.078Z,0
2017-11-19T00:08:31.047Z,0
2017-11-19T00:10:45.742Z,0
2017-11-19T00:11:31.138Z,0
2017-11-19T00:12:31.089Z,0
2017-11-19T00:13:31.153Z,0
2017-11-19T00:14:31.125Z,0
2017-11-19T00:15:31.155Z,0
2017-11-19T00:16:30.911Z,0
2017-11-19T00:17:31.210Z,0
2017-11-19T00:18:45.860Z,0
2017-11-19T00:19:31.199Z,0
2017-11-19T00:20:31.222Z,0
2017-11-19T00:21:30.995Z,0
2017-11-19T00:23:31.028Z,0
2017-11-19T00:24:31.309Z,0
2017-11-19T00:25:31.296Z,0
2017-11-19T00:26:31.390Z,0
2017-11-19T00:27:31.336Z,0
2017-11-19T00:28:31.366Z,0
2017-11-19T00:29:31.398Z,0
2017-11-19T00:30:31.396Z,0
2017-11-19T00:31:31.413Z,0
2017-11-19T00:32:31.437Z,0
2017-11-19T00:33:31.184Z,0
2017-11-19T00:34:45.871Z,0
2017-11-19T00:35:31.474Z,0
2017-11-19T00:36:31.522Z,0
2017-11-19T00:37:31.517Z,0
2017-11-19T00:38:46.187Z,0
2017-11-19T00:39:45.935Z,0
2017-11-19T00:40:46.203Z,0
2017-11-19T00:41:46.243Z,0
2017-11-19T00:42:31.587Z,0
2017-11-19T00:43:31.603Z,0
2017-11-19T00:44:31.628Z,0
2017-11-19T00:45:31.673Z,0
2017-11-19T00:46:31.678Z,0
2017-11-19T00:48:31.680Z,0
2017-11-19T00:50:46.353Z,0
2017-11-19T00:51:31.481Z,0
2017-11-19T00:52:31.455Z,0
2017-11-19T00:53:31.777Z,0
2017-11-19T00:54:31.760Z,0
2017-11-19T00:55:31.526Z,0
2017-11-19T00:56:31.560Z,0
2017-11-19T00:57:31.817Z,0
2017-11-19T00:58:31.832Z,0
2017-11-19T00:59:31.869Z,0
2017-11-19T01:00:31.875Z,0
2017-11-19T01:01:31.900Z,0
2017-11-19T01:02:31.927Z,0
2017-11-19T01:03:31.951Z,0
2017-11-19T01:04:46.614Z,0
2017-11-19T01:05:31.976Z,0
2017-11-19T01:06:46.636Z,0
2017-11-19T01:07:31.989Z,0
2017-11-19T01:08:31.984Z,0
2017-11-19T01:09:31.766Z,0
2017-11-19T01:10:32.036Z,0
2017-11-19T01:11:32.049Z,0
2017-11-19T01:12:46.759Z,0
2017-11-19T01:13:32.069Z,0
2017-11-19T01:14:32.120Z,0
2017-11-19T01:15:32.120Z,0
2017-11-19T01:16:32.143Z,0
2017-11-19T01:17:32.141Z,0
2017-11-19T01:18:32.174Z,0
2017-11-19T01:19:32.189Z,0
2017-11-19T01:20:32.209Z,0
2017-11-19T01:21:46.868Z,0
2017-11-19T01:22:32.234Z,0
2017-11-19T01:23:32.241Z,0
2017-11-19T01:24:32.236Z,0
2017-11-19T01:25:32.276Z,0
2017-11-19T01:26:32.273Z,0
2017-11-19T01:27:32.416Z,0
2017-11-19T01:28:32.349Z,0
2017-11-19T01:29:32.370Z,0
2017-11-19T01:30:32.375Z,0
2017-11-19T01:31:32.387Z,0
2017-11-19T01:32:32.393Z,0
2017-11-19T01:33:32.402Z,0
2017-11-19T01:34:32.414Z,0
2017-11-19T01:35:32.170Z,0
2017-11-19T01:36:32.438Z,0
2017-11-19T01:37:32.468Z,0
2017-11-19T01:38:32.487Z,0
2017-11-19T01:39:32.505Z,0
2017-11-19T01:40:47.166Z,0
2017-11-19T01:41:32.278Z,0
2017-11-19T01:42:32.547Z,0
2017-11-19T01:44:32.574Z,0
2017-11-19T01:45:32.592Z,0
2017-11-19T01:46:32.603Z,0
2017-11-19T01:47:32.634Z,0
2017-11-19T01:48:32.674Z,0
2017-11-19T01:49:32.680Z,0
2017-11-19T01:50:47.337Z,0
2017-11-19T01:52:32.458Z,0
2017-11-19T01:53:47.381Z,0
2017-11-19T01:54:32.724Z,0
2017-11-19T01:55:32.499Z,0
2017-11-19T01:56:32.764Z,0
2017-11-19T01:57:32.801Z,0
2017-11-19T01:58:32.813Z,0
2017-11-19T01:59:32.819Z,0
2017-11-19T02:00:32.868Z,0
2017-11-19T02:01:32.598Z,0
2017-11-19T02:02:32.866Z,0
2017-11-19T02:03:32.874Z,0
2017-11-19T02:04:47.543Z,0
2017-11-19T02:05:32.925Z,0
2017-11-19T02:06:32.933Z,0
2017-11-19T02:07:32.978Z,0
2017-11-19T02:08:33.058Z,0
2017-11-19T02:10:02.295Z,0
2017-11-19T02:10:33.012Z,0
2017-11-19T02:11:32.758Z,0
2017-11-19T02:12:33.015Z,0
2017-11-19T02:13:33.042Z,0
2017-11-19T02:14:33.068Z,0
2017-11-19T02:15:33.077Z,0
2017-11-19T02:17:32.886Z,0
2017-11-19T02:18:33.225Z,0
2017-11-19T02:19:33.117Z,0
2017-11-19T02:20:33.246Z,0
2017-11-19T02:21:32.922Z,0
2017-11-19T02:22:33.184Z,0
2017-11-19T02:23:33.218Z,0
2017-11-19T02:24:33.244Z,0
2017-11-19T02:25:47.894Z,0
2017-11-19T02:26:47.909Z,0
2017-11-19T02:27:33.254Z,0
2017-11-19T02:28:33.287Z,0
2017-11-19T02:29:33.316Z,0
2017-11-19T02:30:33.305Z,0
2017-11-19T02:31:33.345Z,0
2017-11-19T02:32:33.396Z,0
2017-11-19T02:33:33.375Z,0
2017-11-19T02:34:33.394Z,0
2017-11-19T02:35:33.151Z,0
2017-11-19T02:36:33.419Z,0
2017-11-19T02:37:33.211Z,0
2017-11-19T02:38:33.432Z,0
2017-11-19T02:39:33.455Z,0
2017-11-19T02:40:33.226Z,0
2017-11-19T02:41:48.247Z,0
2017-11-19T02:42:33.533Z,0
2017-11-19T02:44:48.215Z,0
2017-11-19T02:45:33.564Z,0
2017-11-19T02:46:33.309Z,0
2017-11-19T02:47:33.568Z,0
2017-11-19T02:48:33.615Z,0
2017-11-19T02:49:33.619Z,0
2017-11-19T02:50:48.292Z,0
2017-11-19T02:51:33.663Z,0
2017-11-19T02:52:33.660Z,0
2017-11-19T02:53:33.689Z,0
2017-11-19T02:54:33.702Z,0
2017-11-19T02:55:33.432Z,0
2017-11-19T02:56:48.123Z,0
2017-11-19T02:57:48.406Z,0
2017-11-19T02:58:33.724Z,0
2017-11-19T02:59:48.439Z,0
2017-11-19T03:00:48.437Z,0
2017-11-19T03:02:33.836Z,0
2017-11-19T03:03:33.577Z,0
2017-11-19T03:04:33.845Z,0
2017-11-19T03:05:33.584Z,0
2017-11-19T03:06:33.886Z,0
2017-11-19T03:07:33.898Z,0
2017-11-19T03:08:33.916Z,0
2017-11-19T03:09:33.663Z,0
2017-11-19T03:10:48.606Z,0
2017-11-19T03:11:33.958Z,0
2017-11-19T03:12:33.978Z,0
2017-11-19T03:13:34.000Z,0
2017-11-19T03:14:34.011Z,0
2017-11-19T03:15:34.028Z,0
2017-11-19T03:16:48.689Z,0
2017-11-19T03:17:34.057Z,0
2017-11-19T03:18:34.078Z,0
2017-11-19T03:19:34.117Z,0
2017-11-19T03:20:34.111Z,0
2017-11-19T03:21:33.854Z,0
2017-11-19T03:22:33.882Z,0
2017-11-19T03:23:34.148Z,0
2017-11-19T03:24:48.814Z,0
2017-11-19T03:25:34.178Z,0
2017-11-19T03:26:34.189Z,0
2017-11-19T03:28:48.880Z,0
2017-11-19T03:29:34.271Z,0
2017-11-19T03:30:34.300Z,0
2017-11-19T03:31:48.942Z,0
2017-11-19T03:32:34.300Z,0
2017-11-19T03:33:34.304Z,0
2017-11-19T03:34:34.302Z,0
2017-11-19T03:35:34.338Z,0
2017-11-19T03:36:34.374Z,0
2017-11-19T03:37:34.376Z,0
2017-11-19T03:38:34.398Z,0
2017-11-19T03:39:34.410Z,0
2017-11-19T03:40:34.173Z,0
2017-11-19T03:41:34.465Z,0
2017-11-19T03:42:34.450Z,0
2017-11-19T03:43:49.121Z,0
2017-11-19T03:44:49.145Z,0
2017-11-19T03:45:49.163Z,0
2017-11-19T03:46:34.504Z,0
2017-11-19T03:47:49.207Z,0
2017-11-19T03:48:34.524Z,0
2017-11-19T03:50:34.581Z,0
2017-11-19T03:51:34.579Z,0
2017-11-19T03:52:34.611Z,0
2017-11-19T03:53:49.282Z,0
2017-11-19T03:54:34.395Z,0
2017-11-19T03:55:34.659Z,0
2017-11-19T03:57:34.394Z,0
2017-11-19T03:58:34.690Z,0
2017-11-19T03:59:49.113Z,0
2017-11-19T04:00:49.380Z,0
2017-11-19T04:01:34.483Z,0
2017-11-19T04:02:34.491Z,0
2017-11-19T04:03:34.753Z,0
2017-11-19T04:05:49.473Z,0
2017-11-19T04:06:34.834Z,0
2017-11-19T04:07:34.841Z,0
2017-11-19T04:08:34.859Z,0
2017-11-19T04:09:34.853Z,0
2017-11-19T04:11:34.657Z,0
2017-11-19T04:12:34.894Z,0
2017-11-19T04:13:34.947Z,0
2017-11-19T04:14:34.946Z,0
2017-11-19T04:15:34.955Z,0
2017-11-19T04:16:49.632Z,0
2017-11-19T04:17:35.008Z,0
2017-11-19T04:18:35.024Z,0
2017-11-19T04:19:34.762Z,0
2017-11-19T04:20:35.044Z,0
2017-11-19T04:21:49.720Z,0
2017-11-19T04:22:35.075Z,0
2017-11-19T04:23:35.179Z,0
2017-11-19T04:24:49.768Z,0
2017-11-19T04:25:49.777Z,0
2017-11-19T04:26:35.141Z,0
2017-11-19T04:27:35.172Z,0
2017-11-19T04:28:35.208Z,0
2017-11-19T04:30:35.214Z,0
2017-11-19T04:31:49.882Z,0
2017-11-19T04:32:35.256Z,0
2017-11-19T04:33:35.265Z,0
2017-11-19T04:34:35.258Z,0
2017-11-19T04:35:35.252Z,0
2017-11-19T04:36:35.305Z,0
2017-11-19T04:37:35.306Z,0
2017-11-19T04:38:49.976Z,0
2017-11-19T04:39:35.341Z,0
2017-11-19T04:40:50.019Z,0
2017-11-19T04:41:35.402Z,0
2017-11-19T04:42:50.055Z,0
2017-11-19T04:44:35.419Z,0
2017-11-19T04:45:35.426Z,0
2017-11-19T04:46:35.427Z,0
2017-11-19T04:47:35.460Z,0
2017-11-19T04:48:35.493Z,0
2017-11-19T04:49:50.160Z,0
2017-11-19T04:50:35.613Z,0
2017-11-19T04:51:35.533Z,0
2017-11-19T04:52:35.537Z,0
2017-11-19T04:53:35.552Z,0
2017-11-19T04:54:35.569Z,0
2017-11-19T04:55:50.342Z,0
2017-11-19T04:56:35.658Z,0
2017-11-19T04:57:35.602Z,0
2017-11-19T04:58:35.632Z,0
2017-11-19T04:59:35.667Z,0
2017-11-19T05:00:35.665Z,0
2017-11-19T05:01:35.412Z,0
2017-11-19T05:02:35.455Z,0
2017-11-19T05:03:50.349Z,0
2017-11-19T05:04:35.730Z,0
2017-11-19T05:05:35.722Z,0
2017-11-19T05:06:35.775Z,0
2017-11-19T05:07:50.427Z,0
2017-11-19T05:08:35.786Z,0
2017-11-19T05:09:35.935Z,0
2017-11-19T05:10:35.810Z,0
2017-11-19T05:12:35.855Z,0
2017-11-19T05:14:50.529Z,0
2017-11-19T05:15:35.936Z,0
2017-11-19T05:16:35.389Z,0
2017-11-19T05:17:35.934Z,0
2017-11-19T05:18:35.939Z,0
2017-11-19T05:19:50.663Z,0
2017-11-19T05:20:36.003Z,0
2017-11-19T05:21:35.992Z,0
2017-11-19T05:22:50.678Z,0
2017-11-19T05:23:36.026Z,0
2017-11-19T05:24:36.052Z,0
2017-11-19T05:25:36.060Z,0
2017-11-19T05:26:36.074Z,0
2017-11-19T05:27:36.113Z,0
2017-11-19T05:28:36.102Z,0
2017-11-19T05:30:36.150Z,0
2017-11-19T05:31:36.147Z,0
2017-11-19T05:32:35.889Z,0
2017-11-19T05:33:36.228Z,0
2017-11-19T05:36:05.564Z,0
2017-11-19T05:36:36.221Z,0
2017-11-19T05:37:36.252Z,0
2017-11-19T05:38:36.274Z,0
2017-11-19T05:39:36.275Z,0
2017-11-19T05:40:36.272Z,0
2017-11-19T05:41:36.323Z,0
2017-11-19T05:42:36.334Z,0
2017-11-19T05:43:36.061Z,0
2017-11-19T05:44:36.362Z,0
2017-11-19T05:45:36.381Z,0
2017-11-19T05:46:36.396Z,0
2017-11-19T05:47:36.404Z,0
2017-11-19T05:48:36.423Z,0
2017-11-19T05:49:36.439Z,0
2017-11-19T05:50:36.450Z,0
2017-11-19T05:51:51.110Z,0
2017-11-19T05:52:36.474Z,0
2017-11-19T05:53:36.491Z,0
2017-11-19T05:54:51.172Z,0
2017-11-19T05:55:36.524Z,0
2017-11-19T05:56:36.535Z,0
2017-11-19T05:57:51.235Z,0
2017-11-19T05:58:36.567Z,0
2017-11-19T05:59:36.608Z,0
2017-11-19T06:00:36.586Z,0
2017-11-19T06:02:51.015Z,0
2017-11-19T06:03:36.377Z,4
2017-11-19T06:04:36.674Z,0
2017-11-19T06:05:36.673Z,4
2017-11-19T06:06:51.364Z,4
2017-11-19T06:07:36.709Z,4
2017-11-19T06:08:36.712Z,4
2017-11-19T06:09:36.471Z,4
2017-11-19T06:10:36.852Z,4
2017-11-19T06:11:51.436Z,4
2017-11-19T06:12:36.774Z,4
2017-11-19T06:13:36.801Z,4
2017-11-19T06:14:36.836Z,8
2017-11-19T06:16:36.848Z,12
2017-11-19T06:17:36.965Z,16
2017-11-19T06:18:36.873Z,20
2017-11-19T06:19:36.640Z,24
2017-11-19T06:20:36.663Z,24
2017-11-19T06:21:36.945Z,28
2017-11-19T06:22:36.983Z,32
2017-11-19T06:23:36.958Z,40
2017-11-19T06:24:36.982Z,40
2017-11-19T06:25:51.658Z,52
2017-11-19T06:26:36.766Z,68
2017-11-19T06:27:37.017Z,80
2017-11-19T06:28:37.034Z,96
2017-11-19T06:29:37.056Z,88
2017-11-19T06:30:37.084Z,76
2017-11-19T06:31:37.093Z,96
2017-11-19T06:32:37.089Z,112
2017-11-19T06:33:51.762Z,120
2017-11-19T06:34:36.867Z,116
2017-11-19T06:35:37.229Z,120
2017-11-19T06:36:37.166Z,144
2017-11-19T06:37:51.830Z,132
2017-11-19T06:38:51.849Z,156
2017-11-19T06:39:37.197Z,164
2017-11-19T06:40:37.216Z,204
2017-11-19T06:41:37.403Z,212
2017-11-19T06:42:37.243Z,208
2017-11-19T06:43:51.936Z,172
2017-11-19T06:44:37.276Z,144
2017-11-19T06:45:52.062Z,136
2017-11-19T06:46:37.319Z,148
2017-11-19T06:47:37.326Z,164
2017-11-19T06:48:37.405Z,164
2017-11-19T06:49:37.365Z,156
2017-11-19T06:51:37.393Z,184
2017-11-19T06:52:37.422Z,216
2017-11-19T06:53:52.087Z,200
2017-11-19T06:54:52.103Z,188
2017-11-19T06:55:37.433Z,200
2017-11-19T06:56:37.482Z,224
2017-11-19T06:57:52.159Z,256
2017-11-19T06:58:37.502Z,264
2017-11-19T06:59:37.500Z,292
2017-11-19T07:00:37.530Z,356
2017-11-19T07:01:37.554Z,400
2017-11-19T07:02:37.560Z,380
2017-11-19T07:03:52.256Z,456
2017-11-19T07:04:52.259Z,432
2017-11-19T07:05:37.645Z,460
2017-11-19T07:06:37.647Z,524
2017-11-19T07:07:37.655Z,504
2017-11-19T07:08:52.335Z,488
2017-11-19T07:09:52.349Z,464
2017-11-19T07:10:52.357Z,592
2017-11-19T07:12:37.506Z,656
2017-11-19T07:13:37.753Z,752
2017-11-19T07:14:37.744Z,956
2017-11-19T07:15:37.756Z,1044
2017-11-19T07:16:37.799Z,1180
2017-11-19T07:17:37.801Z,1024
2017-11-19T07:18:37.962Z,700
2017-11-19T07:19:37.585Z,588
2017-11-19T07:20:37.845Z,576
2017-11-19T07:21:37.873Z,612
2017-11-19T07:22:37.620Z,620
2017-11-19T07:23:37.643Z,572
2017-11-19T07:24:37.909Z,564
2017-11-19T07:25:52.588Z,664
2017-11-19T07:26:52.606Z,696
2017-11-19T07:27:37.957Z,708
2017-11-19T07:28:37.722Z,864
2017-11-19T07:29:37.760Z,1068
2017-11-19T07:30:38.002Z,1304
2017-11-19T07:31:38.021Z,1184
2017-11-19T07:32:38.055Z,1416
2017-11-19T07:33:38.057Z,1492
2017-11-19T07:34:38.088Z,1444
2017-11-19T07:35:38.097Z,1680
2017-11-19T07:36:37.839Z,1188
2017-11-19T07:37:37.870Z,1108
2017-11-19T07:38:38.159Z,896
2017-11-19T07:40:38.205Z,1184
2017-11-19T07:41:52.577Z,1308
2017-11-19T07:42:38.222Z,1644
2017-11-19T07:43:37.692Z,1572
2017-11-19T07:44:38.247Z,1792
2017-11-19T07:45:38.259Z,2140
2017-11-19T07:46:38.269Z,2064
2017-11-19T07:47:38.297Z,2008
2017-11-19T07:48:38.288Z,1792
2017-11-19T07:49:38.329Z,1800
2017-11-19T07:50:38.090Z,1700
2017-11-19T07:51:38.082Z,1892
2017-11-19T07:52:53.028Z,2272
2017-11-19T07:53:38.390Z,2352
2017-11-19T07:55:38.415Z,2168
2017-11-19T07:56:53.067Z,2268
2017-11-19T07:57:38.429Z,2396
2017-11-19T07:58:53.109Z,3112
2017-11-19T07:59:38.484Z,3476
2017-11-19T08:00:38.234Z,2608
2017-11-19T08:01:38.502Z,2976
2017-11-19T08:02:38.555Z,3740
2017-11-19T08:03:38.526Z,3180
2017-11-19T08:04:38.564Z,3672
2017-11-19T08:05:38.312Z,2928
2017-11-19T08:06:38.685Z,2560
2017-11-19T08:07:53.276Z,1912
2017-11-19T08:08:38.363Z,1988
2017-11-19T08:09:38.648Z,2088
2017-11-19T08:10:38.655Z,2360
2017-11-19T08:11:38.668Z,2576
2017-11-19T08:12:38.690Z,3204
2017-11-19T08:13:53.365Z,2920
2017-11-19T08:14:38.466Z,3312
2017-11-19T08:15:53.417Z,4336
2017-11-19T08:16:38.476Z,3444
2017-11-19T08:17:38.754Z,2844
2017-11-19T08:18:53.431Z,3712
2017-11-19T08:20:38.834Z,4052
2017-11-19T08:21:38.825Z,2884
2017-11-19T08:22:38.862Z,2740
2017-11-19T08:24:38.924Z,2404
2017-11-19T08:25:53.560Z,1732
2017-11-19T08:26:38.940Z,1528
2017-11-19T08:27:38.662Z,1404
2017-11-19T08:28:38.944Z,1652
2017-11-19T08:29:53.373Z,1560
2017-11-19T08:30:38.974Z,1684
2017-11-19T08:31:38.729Z,2084
2017-11-19T08:32:38.761Z,2172
2017-11-19T08:33:38.769Z,1972
2017-11-19T08:34:39.038Z,2060
2017-11-19T08:36:39.095Z,1920
2017-11-19T08:37:38.841Z,1932
2017-11-19T08:38:39.109Z,2300
2017-11-19T08:39:39.134Z,2968
2017-11-19T08:40:38.885Z,2684
2017-11-19T08:41:39.174Z,2456
2017-11-19T08:42:39.201Z,1884
2017-11-19T08:43:39.224Z,1448
2017-11-19T08:45:53.888Z,1280
2017-11-19T08:46:39.249Z,1604
2017-11-19T08:47:53.667Z,2160
2017-11-19T08:48:39.275Z,2012
2017-11-19T08:49:39.278Z,2032
2017-11-19T08:50:39.065Z,2272
2017-11-19T08:51:54.012Z,2736
2017-11-19T08:52:39.390Z,2920
2017-11-19T08:53:39.332Z,2980
2017-11-19T08:54:39.409Z,3708
2017-11-19T08:55:39.382Z,3508
2017-11-19T08:56:39.425Z,3828
2017-11-19T08:57:39.423Z,4032
2017-11-19T08:58:39.465Z,4208
2017-11-19T08:59:39.491Z,3716
2017-11-19T09:02:39.534Z,3500
2017-11-19T09:03:39.549Z,3404
2017-11-19T09:04:39.293Z,3536
2017-11-19T09:05:39.567Z,3612
2017-11-19T09:07:39.607Z,2656
2017-11-19T09:08:39.343Z,2712
2017-11-19T09:10:39.404Z,3312
2017-11-19T09:11:39.686Z,2716
2017-11-19T09:12:39.413Z,2168
2017-11-19T09:13:54.100Z,1752
2017-11-19T09:14:39.709Z,1496
2017-11-19T09:15:39.753Z,1376
2017-11-19T09:16:54.138Z,1564
2017-11-19T09:18:39.790Z,1604
2017-11-19T09:19:54.184Z,1544
2017-11-19T09:20:39.548Z,1612
2017-11-19T09:22:39.864Z,1664
2017-11-19T09:23:39.878Z,1644
2017-11-19T09:24:39.624Z,1624
2017-11-19T09:25:39.898Z,1584
2017-11-19T09:26:54.560Z,1316
2017-11-19T09:27:39.930Z,1376
2017-11-19T09:28:39.943Z,1268
2017-11-19T09:29:39.971Z,1144
2017-11-19T09:30:39.702Z,1052
2017-11-19T09:31:39.992Z,1124
2017-11-19T09:32:54.423Z,1256
2017-11-19T09:33:39.784Z,1232
2017-11-19T09:34:40.067Z,1348
2017-11-19T09:35:40.092Z,1460
2017-11-19T09:36:39.828Z,1604
2017-11-19T09:37:40.113Z,1336
2017-11-19T09:38:40.126Z,1264
2017-11-19T09:39:40.153Z,1480
2017-11-19T09:40:40.160Z,1640
2017-11-19T09:41:54.838Z,1504
2017-11-19T09:42:40.176Z,1372
2017-11-19T09:43:40.001Z,1180
2017-11-19T09:44:40.232Z,1176
2017-11-19T09:45:40.252Z,1208
2017-11-19T09:46:40.274Z,1276
2017-11-19T09:47:40.021Z,1320
2017-11-19T09:48:54.674Z,1404
2017-11-19T09:49:40.280Z,1216
2017-11-19T09:50:40.323Z,1140
2017-11-19T09:51:40.054Z,1116
2017-11-19T09:52:40.353Z,1284
2017-11-19T09:53:40.399Z,1500
2017-11-19T09:54:40.123Z,1428
2017-11-19T09:55:40.386Z,1584
2017-11-19T09:56:40.437Z,1864
2017-11-19T09:57:40.444Z,1992
2017-11-19T09:58:40.434Z,2128
2017-11-19T09:59:40.480Z,2340
2017-11-19T10:00:40.483Z,2236
2017-11-19T10:01:40.501Z,2384
2017-11-19T10:03:40.556Z,2416
2017-11-19T10:04:55.193Z,2544
2017-11-19T10:05:40.599Z,2788
2017-11-19T10:06:40.334Z,2360
2017-11-19T10:07:40.616Z,1812
2017-11-19T10:08:40.610Z,1504
2017-11-19T10:09:40.657Z,1516
2017-11-19T10:10:40.657Z,1852
2017-11-19T10:11:55.324Z,2056
2017-11-19T10:12:40.710Z,1980
2017-11-19T10:13:40.706Z,2116
2017-11-19T10:14:40.458Z,2284
2017-11-19T10:15:40.722Z,1836
2017-11-19T10:16:40.528Z,1864
2017-11-19T10:17:40.888Z,1512
2017-11-19T10:18:55.466Z,1200
2017-11-19T10:19:40.784Z,1036
2017-11-19T10:20:55.223Z,1104
2017-11-19T10:21:40.863Z,988
2017-11-19T10:22:40.335Z,1028
2017-11-19T10:23:40.870Z,1088
2017-11-19T10:24:40.885Z,1128
2017-11-19T10:25:40.971Z,996
2017-11-19T10:26:40.921Z,1068
2017-11-19T10:27:40.945Z,1388
2017-11-19T10:28:40.965Z,1760
2017-11-19T10:29:40.968Z,2144
2017-11-19T10:31:41.017Z,2548
2017-11-19T10:32:41.005Z,2808
2017-11-19T10:33:55.698Z,2560
2017-11-19T10:34:41.059Z,2620
2017-11-19T10:35:41.071Z,2400
2017-11-19T10:36:55.835Z,2784
2017-11-19T10:37:41.105Z,3800
2017-11-19T10:38:41.113Z,3152
2017-11-19T10:39:40.618Z,2780
2017-11-19T10:40:41.156Z,2748
2017-11-19T10:41:41.176Z,2720
2017-11-19T10:42:41.177Z,2744
2017-11-19T10:43:41.182Z,2500
2017-11-19T10:44:41.216Z,2772
2017-11-19T10:45:41.005Z,3096
2017-11-19T10:46:41.248Z,3624
2017-11-19T10:47:41.296Z,3456
2017-11-19T10:48:55.937Z,2976
2017-11-19T10:49:41.304Z,3156
2017-11-19T10:50:41.056Z,3140
2017-11-19T10:51:56.005Z,3528
2017-11-19T10:52:41.364Z,3208
2017-11-19T10:53:41.396Z,3236
2017-11-19T10:54:41.465Z,3336
2017-11-19T10:55:41.444Z,2440
2017-11-19T10:56:41.426Z,2228
2017-11-19T10:57:41.155Z,2376
2017-11-19T10:58:41.464Z,2624
2017-11-19T10:59:41.470Z,2760
2017-11-19T11:00:41.488Z,2904
2017-11-19T11:01:41.634Z,3108
2017-11-19T11:02:41.512Z,3492
2017-11-19T11:03:41.528Z,3276
2017-11-19T11:04:56.219Z,3176
2017-11-19T11:05:41.578Z,3128
2017-11-19T11:07:41.603Z,3040
2017-11-19T11:08:41.635Z,3584
2017-11-19T11:09:41.640Z,3392
2017-11-19T11:11:41.425Z,2928
2017-11-19T11:12:41.698Z,3020
2017-11-19T11:13:41.189Z,2784
2017-11-19T11:14:41.713Z,2536
2017-11-19T11:15:56.405Z,2364
2017-11-19T11:16:41.244Z,2180
2017-11-19T11:18:41.813Z,1620
2017-11-19T11:19:41.847Z,1792
2017-11-19T11:20:41.836Z,2548
2017-11-19T11:21:56.530Z,2932
2017-11-19T11:22:41.871Z,3528
2017-11-19T11:23:56.564Z,3136
2017-11-19T11:24:41.950Z,3008
2017-11-19T11:25:41.907Z,2252
2017-11-19T11:26:56.598Z,2004
2017-11-19T11:27:41.946Z,2056
2017-11-19T11:28:41.978Z,1908
2017-11-19T11:30:42.018Z,2440
2017-11-19T11:32:42.061Z,3136
2017-11-19T11:33:42.077Z,4148
2017-11-19T11:34:42.074Z,5532
2017-11-19T11:35:42.119Z,6304
2017-11-19T11:36:42.117Z,7140
2017-11-19T11:37:42.135Z,5724
2017-11-19T11:38:56.815Z,4300
2017-11-19T11:39:56.826Z,3572
2017-11-19T11:40:42.206Z,2940
2017-11-19T11:42:42.214Z,3460
2017-11-19T11:43:42.228Z,3924
2017-11-19T11:44:42.251Z,4040
2017-11-19T11:45:42.261Z,5004
2017-11-19T11:46:56.956Z,6056
2017-11-19T11:47:56.964Z,3756
2017-11-19T11:48:42.313Z,3728
2017-11-19T11:50:42.355Z,4004
2017-11-19T11:51:42.367Z,4512
2017-11-19T11:52:42.368Z,3464
2017-11-19T11:53:42.416Z,2776
2017-11-19T11:54:42.140Z,2420
2017-11-19T11:56:57.088Z,1924
2017-11-19T11:57:42.490Z,1988
2017-11-19T11:58:42.474Z,2416
2017-11-19T11:59:42.503Z,3180
2017-11-19T12:00:42.517Z,4504
2017-11-19T12:01:42.535Z,2700
2017-11-19T12:02:42.544Z,2148
2017-11-19T12:03:42.580Z,1904
2017-11-19T12:04:42.594Z,1512
2017-11-19T12:05:42.625Z,1348
2017-11-19T12:06:42.620Z,1700
2017-11-19T12:07:42.637Z,2256
2017-11-19T12:08:42.679Z,1900
2017-11-19T12:09:42.716Z,1792
2017-11-19T12:10:42.680Z,1608
2017-11-19T12:11:57.376Z,1712
2017-11-19T12:12:42.476Z,1816
2017-11-19T12:13:42.739Z,2236
2017-11-19T12:14:42.773Z,2276
2017-11-19T12:15:57.223Z,3472
2017-11-19T12:16:42.800Z,4344
2017-11-19T12:17:42.543Z,4020
2017-11-19T12:19:42.591Z,4000
2017-11-19T12:21:42.642Z,2148
2017-11-19T12:22:42.889Z,1772
2017-11-19T12:23:42.666Z,2096
2017-11-19T12:24:57.582Z,2096
2017-11-19T12:26:57.631Z,1188
2017-11-19T12:27:43.019Z,1172
2017-11-19T12:28:43.010Z,1520
2017-11-19T12:29:42.757Z,1904
2017-11-19T12:30:57.731Z,2016
2017-11-19T12:31:42.802Z,1896
2017-11-19T12:32:43.093Z,1428
2017-11-19T12:33:57.485Z,1308
2017-11-19T12:34:57.518Z,1340
2017-11-19T12:35:57.264Z,1328
2017-11-19T12:36:43.157Z,1248
2017-11-19T12:37:43.217Z,1060
2017-11-19T12:38:42.930Z,1128
2017-11-19T12:39:42.915Z,1020
2017-11-19T12:41:42.972Z,1368
2017-11-19T12:42:43.261Z,1260
2017-11-19T12:43:43.273Z,1480
2017-11-19T12:44:57.948Z,1468
2017-11-19T12:45:43.037Z,1292
2017-11-19T12:46:43.322Z,1348
2017-11-19T12:47:43.341Z,1696
2017-11-19T12:48:58.023Z,1904
2017-11-19T12:49:43.367Z,2176
2017-11-19T12:50:57.797Z,2312
2017-11-19T12:51:43.410Z,1936
2017-11-19T12:52:43.159Z,1856
2017-11-19T12:53:43.434Z,1444
2017-11-19T12:54:43.188Z,1248
2017-11-19T12:55:43.477Z,1660
2017-11-19T12:56:43.479Z,2284
2017-11-19T12:57:43.250Z,1448
2017-11-19T12:59:12.839Z,1036
2017-11-19T12:59:43.512Z,1172
2017-11-19T13:00:43.282Z,1504
2017-11-19T13:01:43.573Z,1920
2017-11-19T13:02:58.229Z,2012
2017-11-19T13:03:58.266Z,2228
2017-11-19T13:04:43.604Z,2368
2017-11-19T13:05:43.645Z,2192
2017-11-19T13:06:43.382Z,2244
2017-11-19T13:07:43.680Z,2264
2017-11-19T13:08:43.704Z,1760
2017-11-19T13:09:43.748Z,1596
2017-11-19T13:10:43.729Z,2012
2017-11-19T13:11:43.744Z,2028
2017-11-19T13:12:58.423Z,2232
2017-11-19T13:13:43.784Z,2232
2017-11-19T13:14:58.469Z,1932
2017-11-19T13:15:43.825Z,2064
2017-11-19T13:16:43.829Z,2084
2017-11-19T13:17:43.872Z,2108
2017-11-19T13:18:58.675Z,1884
2017-11-19T13:20:43.921Z,1780
2017-11-19T13:21:43.929Z,1812
2017-11-19T13:22:43.922Z,2264
2017-11-19T13:23:58.611Z,2208
2017-11-19T13:24:43.709Z,2700
2017-11-19T13:26:44.017Z,2456
2017-11-19T13:28:44.027Z,2656
2017-11-19T13:29:58.694Z,2840
2017-11-19T13:30:58.733Z,3796
2017-11-19T13:31:44.065Z,3004
2017-11-19T13:32:44.115Z,3248
2017-11-19T13:33:43.863Z,3624
2017-11-19T13:34:58.536Z,2924
2017-11-19T13:35:43.902Z,3240
2017-11-19T13:36:44.208Z,2856
2017-11-19T13:37:43.941Z,3456
2017-11-19T13:38:43.955Z,3536
2017-11-19T13:39:58.885Z,3476
2017-11-19T13:40:58.909Z,3032
2017-11-19T13:41:44.283Z,3660
2017-11-19T13:42:44.270Z,3532
2017-11-19T13:43:44.300Z,3308
2017-11-19T13:44:44.341Z,2744
2017-11-19T13:45:44.083Z,2640
2017-11-19T13:46:58.752Z,2820
2017-11-19T13:47:44.362Z,2436
2017-11-19T13:48:44.116Z,2860
2017-11-19T13:49:44.411Z,2896
2017-11-19T13:50:44.159Z,3148
2017-11-19T13:51:44.454Z,3052
2017-11-19T13:52:44.450Z,3040
2017-11-19T13:53:44.461Z,2712
2017-11-19T13:54:44.467Z,2444
2017-11-19T13:55:44.520Z,2976
2017-11-19T13:56:44.271Z,2384
2017-11-19T13:57:59.180Z,2332
2017-11-19T13:58:44.559Z,1792
2017-11-19T13:59:44.587Z,1556
2017-11-19T14:00:44.347Z,1456
2017-11-19T14:02:13.919Z,1256
2017-11-19T14:02:44.636Z,1272
2017-11-19T14:03:44.638Z,1224
2017-11-19T14:04:44.655Z,1228
2017-11-19T14:05:44.679Z,1128
2017-11-19T14:06:44.446Z,1024
2017-11-19T14:07:44.761Z,888
2017-11-19T14:08:44.732Z,652
2017-11-19T14:09:44.479Z,660
2017-11-19T14:10:44.763Z,692
2017-11-19T14:11:59.170Z,796
2017-11-19T14:12:44.549Z,736
2017-11-19T14:13:44.549Z,672
2017-11-19T14:14:44.837Z,700
2017-11-19T14:15:44.868Z,708
2017-11-19T14:16:44.607Z,668
2017-11-19T14:17:44.903Z,572
2017-11-19T14:18:44.915Z,448
2017-11-19T14:19:44.924Z,416
2017-11-19T14:20:44.933Z,448
2017-11-19T14:21:44.714Z,476
2017-11-19T14:22:44.946Z,508
2017-11-19T14:23:45.007Z,500
2017-11-19T14:24:44.995Z,448
2017-11-19T14:25:45.035Z,364
2017-11-19T14:26:45.034Z,420
2017-11-19T14:27:45.044Z,668
2017-11-19T14:28:45.081Z,1024
2017-11-19T14:29:45.087Z,1284
2017-11-19T14:30:45.109Z,1100
2017-11-19T14:31:45.134Z,884
2017-11-19T14:32:45.157Z,804
2017-11-19T14:33:59.815Z,808
2017-11-19T14:34:45.193Z,852
2017-11-19T14:35:45.188Z,880
2017-11-19T14:36:45.193Z,760
2017-11-19T14:37:45.248Z,740
2017-11-19T14:38:45.014Z,992
2017-11-19T14:39:44.998Z,960
2017-11-19T14:40:45.061Z,1008
2017-11-19T14:41:45.274Z,1104
2017-11-19T14:42:45.045Z,1172
2017-11-19T14:43:45.072Z,1004
2017-11-19T14:44:45.353Z,948
2017-11-19T14:45:45.363Z,832
2017-11-19T14:47:00.038Z,632
2017-11-19T14:47:45.399Z,476
2017-11-19T14:48:45.421Z,396
2017-11-19T14:50:00.099Z,316
2017-11-19T14:50:45.459Z,296
2017-11-19T14:51:45.493Z,256
2017-11-19T14:53:00.145Z,252